Time;durP1;ratioP1;P1;durP2;ratioP2;P2;SDS_P1;SDS_P2;PMS_P1;PMS_P2;Temp;Humidity;BMP_temperature;BMP_pressure;BME280_temperature;BME280_humidity;BME280_pressure;Samples;Min_cycle;Max_cycle;Signal;HPM_P1;HPM_P2
2022/06/07 00:01:14;;;;;;;1.40;0.77;;;17.40;85.60;;;;;;5089569;28;20633;-87
2022/06/07 00:03:42;;;;;;;0.80;0.73;;;17.40;85.60;;;;;;5089402;28;20624;-86
2022/06/07 00:06:09;;;;;;;0.80;0.80;;;17.40;84.70;;;;;;5088292;28;20732;-87
2022/06/07 00:08:38;;;;;;;0.90;0.90;;;17.40;85.00;;;;;;5089294;28;20636;-88
2022/06/07 00:11:05;;;;;;;0.87;0.87;;;17.40;87.10;;;;;;5088694;28;20628;-88
2022/06/07 00:13:33;;;;;;;0.83;0.70;;;17.30;86.00;;;;;;5089350;28;20620;-89
2022/06/07 00:16:00;;;;;;;1.00;0.87;;;17.30;86.10;;;;;;5088118;28;20644;-85
2022/06/07 00:18:28;;;;;;;0.97;0.80;;;17.30;87.90;;;;;;5089018;28;20731;-88
2022/06/07 00:20:55;;;;;;;1.20;1.10;;;17.30;87.70;;;;;;5087540;28;20732;-87
2022/06/07 00:23:24;;;;;;;0.60;0.60;;;17.30;86.40;;;;;;5089033;28;20706;-88
2022/06/07 00:25:54;;;;;;;0.97;0.80;;;17.30;88.00;;;;;;5088390;28;20621;-89
2022/06/07 00:28:23;;;;;;;0.80;0.80;;;17.30;89.00;;;;;;5089001;28;21068;-88
2022/06/07 00:30:51;;;;;;;0.80;0.80;;;17.30;85.70;;;;;;5088690;28;20616;-87
2022/06/07 00:33:21;;;;;;;0.67;0.67;;;17.20;86.90;;;;;;5088528;28;21209;-87
2022/06/07 00:35:49;;;;;;;0.90;0.80;;;17.20;87.90;;;;;;5088280;28;20668;-88
2022/06/07 00:38:17;;;;;;;1.23;1.00;;;17.20;87.60;;;;;;5104388;28;20659;-87
2022/06/07 00:40:45;;;;;;;0.63;0.50;;;17.20;89.30;;;;;;5092707;28;20631;-88
2022/06/07 00:43:14;;;;;;;0.60;0.60;;;17.20;88.50;;;;;;5089968;28;20608;-87
2022/06/07 00:45:42;;;;;;;1.10;1.00;;;17.20;87.10;;;;;;5106998;28;21232;-88
2022/06/07 00:48:10;;;;;;;1.00;0.80;;;17.20;88.60;;;;;;5088611;28;21225;-87
2022/06/07 00:50:45;;;;;;;1.20;1.00;;;17.20;89.10;;;;;;5101263;28;20651;-87
2022/06/07 00:53:23;;;;;;;1.20;1.13;;;17.10;86.90;;;;;;5089428;28;20624;-87
2022/06/07 00:55:51;;;;;;;0.50;0.50;;;17.10;87.90;;;;;;5104662;28;21097;-87
2022/06/07 00:58:20;;;;;;;0.67;0.50;;;17.00;86.00;;;;;;5088510;28;20597;-87
2022/06/07 01:00:47;;;;;;;0.40;0.40;;;17.00;86.40;;;;;;5102786;28;20643;-89
2022/06/07 01:03:14;;;;;;;0.90;0.70;;;17.00;87.90;;;;;;5101748;28;20627;-87
2022/06/07 01:05:42;;;;;;;0.93;0.87;;;17.00;88.20;;;;;;5108294;28;20601;-89
2022/06/07 01:10:56;;;;;;;1.23;0.87;;;16.90;89.50;;;;;;5108497;28;20599;-87
2022/06/07 01:13:28;;;;;;;0.80;0.70;;;16.80;90.10;;;;;;5104801;28;20630;-87
2022/06/07 01:16:00;;;;;;;1.00;0.80;;;16.80;91.60;;;;;;5091396;28;20617;-88
2022/06/07 01:18:28;;;;;;;0.83;0.83;;;16.70;93.00;;;;;;5104843;28;20726;-88
2022/06/07 01:21:17;;;;;;;0.70;0.70;;;16.70;93.90;;;;;;5101064;28;20712;-90
2022/06/07 01:23:46;;;;;;;0.80;0.63;;;16.70;95.30;;;;;;5088265;28;20612;-89
2022/06/07 01:26:13;;;;;;;0.77;0.77;;;16.60;94.00;;;;;;5094440;28;20958;-87
2022/06/07 01:28:41;;;;;;;0.77;0.77;;;16.60;96.10;;;;;;5104213;28;21061;-87
2022/06/07 01:31:09;;;;;;;0.90;0.90;;;16.50;96.70;;;;;;5105924;28;20634;-87
2022/06/07 01:33:37;;;;;;;0.90;0.90;;;16.40;96.60;;;;;;5107649;28;20623;-87
2022/06/07 01:36:07;;;;;;;1.00;0.90;;;16.30;96.70;;;;;;5095616;28;20768;-87
2022/06/07 01:38:38;;;;;;;0.70;0.70;;;16.30;97.10;;;;;;5095198;28;20636;-85
2022/06/07 01:43:53;;;;;;;0.50;0.50;;;16.30;97.20;;;;;;5097842;28;20620;-87
2022/06/07 01:46:21;;;;;;;1.63;1.53;;;16.20;97.10;;;;;;5100534;28;20619;-86
2022/06/07 01:48:49;;;;;;;1.20;1.13;;;16.20;97.30;;;;;;5095920;28;20720;-88
2022/06/07 01:51:17;;;;;;;1.00;1.00;;;16.20;98.00;;;;;;5097108;28;20658;-88
2022/06/07 01:53:47;;;;;;;0.80;0.80;;;16.20;98.20;;;;;;5113563;27;20661;-87
2022/06/07 01:56:16;;;;;;;0.67;0.67;;;16.20;98.30;;;;;;5094373;28;20860;-87
2022/06/07 01:58:44;;;;;;;0.70;0.70;;;16.20;98.80;;;;;;5101158;28;20635;-89
2022/06/07 02:01:13;;;;;;;0.80;0.80;;;16.10;99.40;;;;;;5109259;27;20670;-88
2022/06/07 02:03:40;;;;;;;0.80;0.80;;;16.10;97.60;;;;;;5094817;28;20707;-87
2022/06/07 02:06:09;;;;;;;1.40;1.30;;;16.10;97.20;;;;;;5095559;28;20656;-87
2022/06/07 02:08:36;;;;;;;0.70;0.70;;;16.00;96.50;;;;;;5101668;28;20647;-90
2022/06/07 02:11:08;;;;;;;0.83;0.83;;;16.00;96.50;;;;;;5111031;27;20980;-87
2022/06/07 02:13:35;;;;;;;1.33;1.03;;;16.00;96.10;;;;;;5094694;28;20620;-86
2022/06/07 02:16:02;;;;;;;0.50;0.50;;;15.90;96.40;;;;;;5094007;28;20690;-88
2022/06/07 02:18:29;;;;;;;0.60;0.60;;;15.90;96.40;;;;;;5115067;28;20630;-86
2022/06/07 02:20:59;;;;;;;1.10;0.80;;;15.80;96.00;;;;;;5098429;27;20651;-87
2022/06/07 02:23:26;;;;;;;0.40;0.33;;;15.80;95.50;;;;;;5110824;27;20623;-89
2022/06/07 02:25:57;;;;;;;0.57;0.50;;;15.80;96.30;;;;;;5104822;27;20620;-89
2022/06/07 02:28:27;;;;;;;0.77;0.60;;;15.80;95.70;;;;;;5099451;28;20719;-88
2022/06/07 02:30:55;;;;;;;0.50;0.50;;;15.70;96.00;;;;;;5110995;27;20632;-89
2022/06/07 02:33:24;;;;;;;1.37;0.60;;;15.60;95.10;;;;;;5094586;28;20673;-89
2022/06/07 02:35:51;;;;;;;0.50;0.50;;;15.70;95.10;;;;;;5109696;28;20623;-89
2022/06/07 02:38:18;;;;;;;0.50;0.50;;;15.70;94.90;;;;;;5114116;27;21019;-89
2022/06/07 02:40:47;;;;;;;0.53;0.53;;;15.70;95.90;;;;;;5114082;27;21031;-89
2022/06/07 02:43:14;;;;;;;0.80;0.57;;;15.60;95.80;;;;;;5094230;28;21029;-89
2022/06/07 02:45:42;;;;;;;0.50;0.50;;;15.60;95.70;;;;;;5092067;28;20685;-89
2022/06/07 02:48:09;;;;;;;0.50;0.50;;;15.60;96.10;;;;;;5111386;28;20692;-88
2022/06/07 02:50:37;;;;;;;0.73;0.60;;;15.60;96.30;;;;;;5105779;27;20655;-88
2022/06/07 02:53:04;;;;;;;0.50;0.50;;;15.60;97.00;;;;;;5104697;28;21169;-90
2022/06/07 02:55:31;;;;;;;0.60;0.40;;;15.60;97.30;;;;;;5094784;28;20607;-88
2022/06/07 02:57:59;;;;;;;0.40;0.33;;;15.50;96.60;;;;;;5110574;28;20651;-87
2022/06/07 03:00:26;;;;;;;0.50;0.50;;;15.50;96.70;;;;;;5095187;28;20622;-89
2022/06/07 03:02:54;;;;;;;0.60;0.50;;;15.40;96.60;;;;;;5091627;28;20639;-87
2022/06/07 03:05:21;;;;;;;0.50;0.50;;;15.50;96.50;;;;;;5092931;28;20764;-89
2022/06/07 03:07:48;;;;;;;0.60;0.53;;;15.40;96.20;;;;;;5111038;28;20756;-87
2022/06/07 03:10:15;;;;;;;0.40;0.40;;;15.50;94.90;;;;;;5099021;28;21097;-88
2022/06/07 03:12:42;;;;;;;1.17;0.83;;;15.50;94.00;;;;;;5106902;28;20627;-90
2022/06/07 03:15:10;;;;;;;0.50;0.50;;;15.60;94.60;;;;;;5091048;28;20719;-89
2022/06/07 03:17:37;;;;;;;0.50;0.50;;;15.50;96.10;;;;;;5090474;28;20628;-87
2022/06/07 03:20:08;;;;;;;0.83;0.70;;;15.50;96.30;;;;;;5091616;28;20970;-86
2022/06/07 03:22:35;;;;;;;0.60;0.57;;;15.50;95.60;;;;;;5102363;28;20642;-87
2022/06/07 03:25:07;;;;;;;0.50;0.30;;;15.60;95.50;;;;;;5095103;28;20620;-85
2022/06/07 03:27:35;;;;;;;0.97;0.70;;;15.50;96.00;;;;;;5105112;28;20655;-88
2022/06/07 03:30:03;;;;;;;1.20;0.60;;;15.60;96.40;;;;;;5109964;28;20615;-86
2022/06/07 03:32:30;;;;;;;0.60;0.50;;;15.50;96.00;;;;;;5099456;28;20677;-88
2022/06/07 03:34:57;;;;;;;0.30;0.30;;;15.40;95.30;;;;;;5090564;28;21170;-88
2022/06/07 03:37:25;;;;;;;0.50;0.50;;;15.40;95.90;;;;;;5099867;28;20684;-88
2022/06/07 03:39:52;;;;;;;0.70;0.70;;;15.40;94.90;;;;;;5110471;28;20655;-88
2022/06/07 03:42:19;;;;;;;0.50;0.50;;;15.40;94.20;;;;;;5102173;28;21059;-88
2022/06/07 03:44:48;;;;;;;0.60;0.50;;;15.50;94.10;;;;;;5096273;28;21174;-87
2022/06/07 03:47:16;;;;;;;0.50;0.40;;;15.50;93.70;;;;;;5109430;28;20616;-85
2022/06/07 03:49:42;;;;;;;0.70;0.60;;;15.50;94.20;;;;;;5110681;28;20707;-89
2022/06/07 03:52:09;;;;;;;0.57;0.57;;;15.50;95.00;;;;;;5090041;28;20646;-88
2022/06/07 03:54:38;;;;;;;0.73;0.50;;;15.50;94.60;;;;;;5095899;28;20609;-87
2022/06/07 03:57:06;;;;;;;0.90;0.50;;;15.50;93.50;;;;;;5104012;28;20620;-88
2022/06/07 03:59:33;;;;;;;0.50;0.50;;;15.70;94.30;;;;;;5090453;28;20632;-87
2022/06/07 04:02:00;;;;;;;0.40;0.40;;;15.70;93.60;;;;;;5109945;28;20651;-87
2022/06/07 04:04:30;;;;;;;1.20;0.50;;;15.80;93.80;;;;;;5102665;28;20663;-86
2022/06/07 04:09:42;;;;;;;0.60;0.50;;;15.90;93.10;;;;;;5099195;28;21182;-90
2022/06/07 04:12:12;;;;;;;0.90;0.60;;;15.80;93.40;;;;;;5107746;28;20627;-86
2022/06/07 04:14:39;;;;;;;0.70;0.53;;;15.90;93.20;;;;;;5096888;28;20715;-86
2022/06/07 04:17:06;;;;;;;0.60;0.40;;;15.90;93.10;;;;;;5102387;28;20668;-88
2022/06/07 04:19:35;;;;;;;0.60;0.57;;;15.90;93.60;;;;;;5099314;28;21190;-87
2022/06/07 04:22:03;;;;;;;0.80;0.67;;;15.90;93.60;;;;;;5108124;28;20627;-87
2022/06/07 04:24:30;;;;;;;1.20;0.63;;;15.80;94.50;;;;;;5095627;28;20623;-88
2022/06/07 04:26:59;;;;;;;0.40;0.40;;;15.80;94.70;;;;;;5089169;28;20621;-87
2022/06/07 04:29:26;;;;;;;0.50;0.50;;;15.80;96.10;;;;;;5090217;28;21253;-85
2022/06/07 04:31:53;;;;;;;0.53;0.40;;;15.70;96.40;;;;;;5105121;28;20696;-87
2022/06/07 04:34:20;;;;;;;0.70;0.50;;;15.50;95.90;;;;;;5096388;28;20701;-87
2022/06/07 04:36:47;;;;;;;1.30;0.90;;;15.50;96.40;;;;;;5095578;28;20608;-89
2022/06/07 04:39:14;;;;;;;0.63;0.50;;;15.50;96.40;;;;;;5109623;28;20604;-88
2022/06/07 04:41:41;;;;;;;0.67;0.67;;;15.50;96.30;;;;;;5099937;28;20675;-87
2022/06/07 04:44:10;;;;;;;1.00;0.90;;;15.50;96.00;;;;;;5089319;28;20747;-88
2022/06/07 04:46:37;;;;;;;1.27;0.60;;;15.50;96.40;;;;;;5099038;28;20619;-88
2022/06/07 04:49:04;;;;;;;1.30;0.77;;;15.60;96.50;;;;;;5109148;28;21072;-87
2022/06/07 04:51:32;;;;;;;0.70;0.70;;;15.50;95.30;;;;;;5105519;28;20620;-88
2022/06/07 04:54:01;;;;;;;0.90;0.50;;;15.50;96.20;;;;;;5098740;28;20632;-90
2022/06/07 04:56:33;;;;;;;0.70;0.70;;;15.50;96.50;;;;;;5100928;28;20689;-89
2022/06/07 04:59:02;;;;;;;0.57;0.40;;;15.60;96.70;;;;;;5100439;28;21029;-88
2022/06/07 05:01:32;;;;;;;0.87;0.60;;;15.70;96.90;;;;;;5099298;28;20697;-88
2022/06/07 05:03:59;;;;;;;0.73;0.73;;;15.70;96.30;;;;;;5108673;28;21241;-88
2022/06/07 05:06:28;;;;;;;0.60;0.47;;;15.80;96.00;;;;;;5104658;28;20689;-87
2022/06/07 05:08:57;;;;;;;0.83;0.80;;;15.80;96.30;;;;;;5107957;28;20870;-87
2022/06/07 05:11:23;;;;;;;0.50;0.43;;;15.80;96.20;;;;;;5101072;28;20627;-88
2022/06/07 05:13:53;;;;;;;1.13;0.90;;;15.80;96.10;;;;;;5108494;28;20680;-88
2022/06/07 05:16:20;;;;;;;0.60;0.60;;;15.80;95.50;;;;;;5096775;28;20691;-87
2022/06/07 05:18:53;;;;;;;1.13;0.50;;;15.70;94.80;;;;;;5088123;28;20624;-88
2022/06/07 05:21:21;;;;;;;0.70;0.70;;;15.70;95.30;;;;;;5089622;28;21023;-88
2022/06/07 05:23:49;;;;;;;0.60;0.40;;;15.70;94.80;;;;;;5088770;28;20671;-88
2022/06/07 05:26:23;;;;;;;0.60;0.60;;;15.70;95.30;;;;;;5088818;28;20624;-88
2022/06/07 05:28:50;;;;;;;0.60;0.60;;;15.70;95.30;;;;;;5088337;28;20648;-88
2022/06/07 05:31:17;;;;;;;0.50;0.50;;;15.70;95.60;;;;;;5098533;28;20652;-89
2022/06/07 05:33:44;;;;;;;0.60;0.60;;;15.70;95.30;;;;;;5096055;28;21619;-89
2022/06/07 05:36:13;;;;;;;0.80;0.80;;;15.70;95.80;;;;;;5107920;28;21185;-87
2022/06/07 05:38:40;;;;;;;0.80;0.77;;;15.70;96.00;;;;;;5107887;28;20714;-86
2022/06/07 05:41:07;;;;;;;0.80;0.80;;;15.70;95.30;;;;;;5105091;28;20676;-87
2022/06/07 05:43:34;;;;;;;0.73;0.73;;;15.80;95.70;;;;;;5106747;28;20704;-87
2022/06/07 05:46:01;;;;;;;0.60;0.50;;;15.90;95.90;;;;;;5103395;28;20653;-89
2022/06/07 05:48:33;;;;;;;1.43;0.80;;;16.00;95.00;;;;;;5088448;28;21230;-87
2022/06/07 05:51:00;;;;;;;1.53;0.87;;;16.00;95.50;;;;;;5094566;28;20616;-87
2022/06/07 05:53:28;;;;;;;0.70;0.70;;;16.10;95.70;;;;;;5102077;28;21197;-88
2022/06/07 05:55:56;;;;;;;0.40;0.40;;;16.10;95.30;;;;;;5092253;28;21225;-88
2022/06/07 05:58:25;;;;;;;2.77;0.60;;;16.20;95.70;;;;;;5098178;28;20736;-88
2022/06/07 06:00:52;;;;;;;1.10;0.83;;;16.30;95.60;;;;;;5098373;28;20734;-87
2022/06/07 06:03:19;;;;;;;0.80;0.80;;;16.40;95.80;;;;;;5106360;28;20666;-88
2022/06/07 06:05:47;;;;;;;0.90;0.60;;;16.50;95.40;;;;;;5107056;28;20631;-88
2022/06/07 06:11:08;;;;;;;2.83;0.90;;;16.50;96.10;;;;;;5088639;28;20604;-88
2022/06/07 06:13:36;;;;;;;0.77;0.70;;;16.50;95.60;;;;;;5106296;28;20607;-88
2022/06/07 06:16:04;;;;;;;0.90;0.90;;;16.60;95.90;;;;;;5096823;28;20761;-87
2022/06/07 06:18:32;;;;;;;0.63;0.63;;;16.50;95.90;;;;;;5104013;28;20642;-87
2022/06/07 06:20:59;;;;;;;0.73;0.73;;;16.60;95.30;;;;;;5109897;27;20715;-87
2022/06/07 06:23:26;;;;;;;1.07;0.70;;;16.60;95.50;;;;;;5109236;28;20623;-89
2022/06/07 06:25:53;;;;;;;0.90;0.90;;;16.60;95.50;;;;;;5108449;28;20639;-87
2022/06/07 06:28:21;;;;;;;0.60;0.60;;;16.50;95.70;;;;;;5091311;28;20667;-86
2022/06/07 06:30:49;;;;;;;0.53;0.53;;;16.60;95.70;;;;;;5097647;28;20750;-85
2022/06/07 06:33:17;;;;;;;0.67;0.67;;;16.80;95.50;;;;;;5111774;28;20672;-88
2022/06/07 06:35:48;;;;;;;0.70;0.70;;;16.70;95.80;;;;;;5109822;28;21172;-87
2022/06/07 06:38:16;;;;;;;0.60;0.60;;;16.80;95.80;;;;;;5109809;28;20655;-87
2022/06/07 06:40:44;;;;;;;0.60;0.60;;;16.80;96.00;;;;;;5103803;28;20708;-88
2022/06/07 06:43:11;;;;;;;0.97;0.93;;;16.90;94.80;;;;;;5092065;28;20628;-88
2022/06/07 06:45:39;;;;;;;0.97;0.70;;;16.90;94.40;;;;;;5103547;28;20700;-86
2022/06/07 06:48:07;;;;;;;0.63;0.63;;;17.00;93.80;;;;;;5092491;28;20656;-88
2022/06/07 06:50:35;;;;;;;0.70;0.70;;;17.00;93.60;;;;;;5096403;28;20692;-87
2022/06/07 06:53:02;;;;;;;0.53;0.53;;;17.00;93.80;;;;;;5091248;28;20624;-88
2022/06/07 06:55:30;;;;;;;1.33;0.70;;;17.00;93.90;;;;;;5105892;28;21774;-88
2022/06/07 06:57:57;;;;;;;0.57;0.57;;;17.10;93.80;;;;;;5090430;28;21277;-86
2022/06/07 07:00:25;;;;;;;1.43;0.77;;;17.20;93.80;;;;;;5092027;28;21223;-87
2022/06/07 07:02:54;;;;;;;0.47;0.47;;;17.40;94.10;;;;;;5101896;28;20623;-87
2022/06/07 07:05:21;;;;;;;0.77;0.73;;;17.50;94.00;;;;;;5109551;28;20715;-87
2022/06/07 07:07:48;;;;;;;1.43;0.63;;;;;;;;;;5110724;28;20964;-87
2022/06/07 07:10:15;;;;;;;0.50;0.50;;;17.70;92.50;;;;;;5109127;28;20720;-87
2022/06/07 07:12:42;;;;;;;1.17;0.70;;;17.70;92.40;;;;;;5109425;28;20712;-87
2022/06/07 07:15:13;;;;;;;0.40;0.40;;;17.70;92.10;;;;;;5107441;28;20619;-87
2022/06/07 07:17:40;;;;;;;0.93;0.70;;;17.60;91.60;;;;;;5097298;28;20762;-87
2022/06/07 07:20:09;;;;;;;0.40;0.40;;;17.50;91.50;;;;;;5109647;28;20718;-85
2022/06/07 07:22:37;;;;;;;0.60;0.60;;;17.50;91.80;;;;;;5102853;28;20621;-88
2022/06/07 07:25:05;;;;;;;0.60;0.50;;;17.50;91.20;;;;;;5104781;28;20745;-86
2022/06/07 07:27:32;;;;;;;1.37;0.70;;;17.50;91.80;;;;;;5099287;28;20680;-87
2022/06/07 07:30:00;;;;;;;0.67;0.67;;;17.80;92.50;;;;;;5108603;28;20683;-87
2022/06/07 07:32:26;;;;;;;0.47;0.40;;;17.90;92.60;;;;;;5106886;28;20620;-87
2022/06/07 07:34:54;;;;;;;0.67;0.67;;;18.10;91.70;;;;;;5105901;28;20713;-86
2022/06/07 07:37:23;;;;;;;0.50;0.50;;;18.20;90.60;;;;;;5099679;28;20616;-86
2022/06/07 07:39:50;;;;;;;0.60;0.50;;;18.30;90.70;;;;;;5107078;28;21014;-87
2022/06/07 07:42:17;;;;;;;0.33;0.33;;;18.40;90.40;;;;;;5095797;28;20656;-87
2022/06/07 07:44:44;;;;;;;0.70;0.70;;;18.40;90.20;;;;;;5089965;28;20620;-88
2022/06/07 07:47:11;;;;;;;1.80;0.90;;;18.70;90.50;;;;;;5105418;28;20623;-86
2022/06/07 07:49:38;;;;;;;0.77;0.77;;;18.90;89.50;;;;;;5109661;28;21057;-86
2022/06/07 07:52:05;;;;;;;0.43;0.40;;;19.00;89.80;;;;;;5105632;28;20660;-86
2022/06/07 07:54:33;;;;;;;0.60;0.60;;;18.80;87.60;;;;;;5092078;28;20724;-87
2022/06/07 07:57:00;;;;;;;0.70;0.70;;;18.90;88.00;;;;;;5108892;28;20704;-87
2022/06/07 07:59:28;;;;;;;0.50;0.50;;;18.80;87.00;;;;;;5098043;28;20656;-87
2022/06/07 08:01:55;;;;;;;0.43;0.43;;;19.00;87.60;;;;;;5100545;28;20624;-87
2022/06/07 08:04:22;;;;;;;0.50;0.50;;;19.20;85.20;;;;;;5091332;28;20612;-88
2022/06/07 08:06:49;;;;;;;1.10;0.80;;;19.10;85.70;;;;;;5108335;28;20704;-87
2022/06/07 08:09:16;;;;;;;2.10;0.77;;;18.90;86.80;;;;;;5108874;28;20640;-86
2022/06/07 08:11:45;;;;;;;0.50;0.50;;;19.00;86.50;;;;;;5108605;27;20658;-86
2022/06/07 08:14:14;;;;;;;0.53;0.53;;;19.00;86.00;;;;;;5090017;28;20628;-86
2022/06/07 08:16:42;;;;;;;0.80;0.70;;;19.00;84.30;;;;;;5090078;28;20617;-86
2022/06/07 08:19:09;;;;;;;0.50;0.50;;;19.40;85.10;;;;;;5109039;28;20739;-88
2022/06/07 08:21:37;;;;;;;0.80;0.63;;;19.30;82.50;;;;;;5097948;28;20673;-85
2022/06/07 08:24:05;;;;;;;0.40;0.40;;;19.40;82.10;;;;;;5088894;28;20703;-87
2022/06/07 08:26:33;;;;;;;0.50;0.50;;;19.40;81.70;;;;;;5104305;28;20629;-86
2022/06/07 08:29:02;;;;;;;0.40;0.40;;;19.40;83.30;;;;;;5093060;28;20649;-88
2022/06/07 08:31:31;;;;;;;0.73;0.60;;;19.60;82.40;;;;;;5108285;28;20612;-86
2022/06/07 08:39:31;;;;;;;0.40;0.40;;;19.00;81.10;;;;;;5107012;28;20616;-88
2022/06/07 08:42:00;;;;;;;1.90;0.80;;;18.70;81.80;;;;;;5104820;28;20620;-87
2022/06/07 08:44:34;;;;;;;0.60;0.60;;;18.70;83.40;;;;;;5107940;28;20624;-87
2022/06/07 08:47:05;;;;;;;0.43;0.40;;;18.50;82.80;;;;;;5103706;28;20673;-86
2022/06/07 08:49:32;;;;;;;0.50;0.50;;;18.40;83.20;;;;;;5095480;28;21308;-86
2022/06/07 08:52:06;;;;;;;0.47;0.47;;;18.50;84.90;;;;;;5105180;28;20608;-87
2022/06/07 08:54:37;;;;;;;0.80;0.70;;;18.70;86.20;;;;;;5106586;28;20655;-87
2022/06/07 08:57:16;;;;;;;0.90;0.50;;;18.90;86.70;;;;;;5091842;28;20968;-86
2022/06/07 08:59:48;;;;;;;0.60;0.60;;;19.20;84.50;;;;;;5103019;28;20996;-87
2022/06/07 09:02:35;;;;;;;1.03;0.80;;;19.50;81.70;;;;;;5103838;28;20619;-87
2022/06/07 09:05:01;;;;;;;0.50;0.50;;;19.50;79.70;;;;;;5105129;28;21055;-87
2022/06/07 09:07:29;;;;;;;0.40;0.40;;;19.90;80.20;;;;;;5108060;27;21194;-87
2022/06/07 09:12:58;;;;;;;0.47;0.47;;;20.20;81.40;;;;;;5089375;28;20612;-87
2022/06/07 09:15:28;;;;;;;0.60;0.60;;;20.40;81.00;;;;;;5088898;28;20647;-86
2022/06/07 09:17:58;;;;;;;1.63;0.60;;;20.70;76.40;;;;;;5094516;28;20678;-86
2022/06/07 09:20:30;;;;;;;0.60;0.60;;;20.70;77.20;;;;;;5098260;28;20742;-84
2022/06/07 09:22:59;;;;;;;0.80;0.80;;;20.30;80.00;;;;;;5090108;28;20620;-87
2022/06/07 09:25:29;;;;;;;0.50;0.50;;;20.20;79.90;;;;;;5104419;28;20615;-87
2022/06/07 09:27:58;;;;;;;0.50;0.50;;;20.00;80.70;;;;;;5107597;28;21242;-86
2022/06/07 09:30:30;;;;;;;0.73;0.73;;;20.00;80.50;;;;;;5097410;28;20744;-85
2022/06/07 09:32:57;;;;;;;0.77;0.67;;;19.80;75.90;;;;;;5095284;28;21241;-87
2022/06/07 09:35:36;;;;;;;0.63;0.53;;;19.80;79.50;;;;;;5107116;28;21237;-87
2022/06/07 09:38:07;;;;;;;0.37;0.30;;;20.20;74.20;;;;;;5107756;28;20606;-87
2022/06/07 09:40:37;;;;;;;1.10;0.60;;;20.50;77.60;;;;;;5098245;28;20663;-87
2022/06/07 09:43:18;;;;;;;0.40;0.40;;;20.50;75.60;;;;;;5107708;28;20650;-87
2022/06/07 09:45:55;;;;;;;1.10;0.70;;;20.50;77.00;;;;;;5103885;28;20688;-87
2022/06/07 09:48:30;;;;;;;0.70;0.70;;;20.80;78.40;;;;;;5096687;28;20665;-87
2022/06/07 09:51:01;;;;;;;0.50;0.50;;;21.20;73.80;;;;;;5099933;28;20651;-89
2022/06/07 09:53:35;;;;;;;1.80;0.70;;;21.30;74.30;;;;;;5109823;28;20647;-87
2022/06/07 09:56:17;;;;;;;0.40;0.40;;;21.00;75.30;;;;;;5110742;28;20627;-87
2022/06/07 09:58:54;;;;;;;0.50;0.50;;;20.90;74.90;;;;;;5102923;28;20710;-86
2022/06/07 10:01:27;;;;;;;0.57;0.57;;;20.70;76.20;;;;;;5110212;28;20666;-87
2022/06/07 10:04:01;;;;;;;0.70;0.60;;;20.60;73.70;;;;;;5104220;28;21008;-87
2022/06/07 10:06:30;;;;;;;0.70;0.70;;;20.50;73.30;;;;;;5109442;28;21089;-88
2022/06/07 10:09:20;;;;;;;0.70;0.70;;;20.40;74.30;;;;;;5091982;28;20682;-85
2022/06/07 10:11:56;;;;;;;0.40;0.40;;;20.70;75.10;;;;;;5111216;28;21225;-88
2022/06/07 10:14:38;;;;;;;0.50;0.50;;;21.20;74.10;;;;;;5103570;28;20627;-87
2022/06/07 10:17:38;;;;;;;1.00;0.47;;;21.60;72.40;;;;;;5097012;28;20643;-86
2022/06/07 10:20:12;;;;;;;1.20;0.60;;;21.70;69.80;;;;;;5103297;28;20612;-87
2022/06/07 10:22:52;;;;;;;1.03;0.93;;;21.90;70.20;;;;;;5105445;28;20619;-87
2022/06/07 10:25:24;;;;;;;0.70;0.70;;;22.10;71.50;;;;;;5091066;28;20620;-88
2022/06/07 10:28:03;;;;;;;0.77;0.70;;;22.30;68.70;;;;;;5103543;28;20635;-88
2022/06/07 10:30:41;;;;;;;0.60;0.60;;;21.90;68.00;;;;;;5105610;28;21250;-87
2022/06/07 10:33:37;;;;;;;0.77;0.77;;;21.90;68.90;;;;;;5110049;28;20726;-86
2022/06/07 10:36:16;;;;;;;0.50;0.50;;;21.80;68.20;;;;;;5105998;28;20615;-84
2022/06/07 10:38:56;;;;;;;0.50;0.50;;;21.60;69.80;;;;;;5110472;28;20679;-85
2022/06/07 10:41:30;;;;;;;0.70;0.70;;;21.20;74.40;;;;;;5109635;28;20669;-85
2022/06/07 10:44:06;;;;;;;0.80;0.70;;;20.80;72.30;;;;;;5111213;28;20618;-85
2022/06/07 10:46:37;;;;;;;0.50;0.50;;;20.50;71.60;;;;;;5106245;28;20619;-86
2022/06/07 10:49:15;;;;;;;0.60;0.60;;;20.50;75.20;;;;;;5097055;28;20630;-86
2022/06/07 10:54:39;;;;;;;0.40;0.30;;;20.20;71.90;;;;;;5097922;28;20663;-85
2022/06/07 10:57:12;;;;;;;0.60;0.60;;;20.10;68.80;;;;;;5099094;28;20631;-86
2022/06/07 10:59:42;;;;;;;0.70;0.70;;;20.00;71.20;;;;;;5111424;28;20615;-86
2022/06/07 11:02:20;;;;;;;0.87;0.87;;;20.10;76.00;;;;;;5104915;28;20759;-85
2022/06/07 11:10:33;;;;;;;0.50;0.40;;;21.90;72.90;;;;;;5093666;28;20653;-86
2022/06/07 11:13:07;;;;;;;0.70;0.57;;;22.70;71.80;;;;;;5100504;28;21020;-85
2022/06/07 11:15:41;;;;;;;1.80;1.27;;;23.10;67.10;;;;;;5105732;27;20673;-86
2022/06/07 11:18:14;;;;;;;0.60;0.60;;;23.20;68.20;;;;;;5090578;28;20628;-86
2022/06/07 11:20:51;;;;;;;2.40;0.90;;;22.70;68.80;;;;;;5108732;28;20631;-87
2022/06/07 11:23:24;;;;;;;1.17;1.03;;;22.10;69.90;;;;;;5089704;28;20701;-87
2022/06/07 11:26:04;;;;;;;0.63;0.63;;;22.40;68.70;;;;;;5097702;28;20723;-89
2022/06/07 11:28:35;;;;;;;0.53;0.53;;;22.90;71.00;;;;;;5109892;28;20628;-86
2022/06/07 11:31:03;;;;;;;1.80;0.60;;;23.00;67.70;;;;;;5109578;28;20656;-87
2022/06/07 11:33:38;;;;;;;0.97;0.53;;;23.00;67.00;;;;;;5109246;28;20696;-86
2022/06/07 11:36:27;;;;;;;1.53;0.70;;;22.70;68.40;;;;;;5096801;28;20632;-86
2022/06/07 11:39:17;;;;;;;0.70;0.70;;;22.40;70.20;;;;;;5103303;28;20655;-86
2022/06/07 11:41:48;;;;;;;0.70;0.70;;;22.20;69.90;;;;;;5096935;28;21177;-87
2022/06/07 11:44:39;;;;;;;0.70;0.70;;;21.80;72.40;;;;;;5110084;28;20630;-86
2022/06/07 11:47:30;;;;;;;0.53;0.53;;;21.50;70.00;;;;;;5104567;28;21244;-84
2022/06/07 11:50:28;;;;;;;0.70;0.70;;;21.30;72.30;;;;;;5110099;28;20695;-85
2022/06/07 11:53:24;;;;;;;0.70;0.70;;;21.40;73.40;;;;;;5109284;28;20619;-86
2022/06/07 11:55:57;;;;;;;0.80;0.80;;;20.90;74.80;;;;;;5104252;28;20685;-85
2022/06/07 11:58:51;;;;;;;0.60;0.57;;;21.10;73.70;;;;;;5107959;28;20719;-85
2022/06/07 12:01:34;;;;;;;0.67;0.67;;;21.00;71.80;;;;;;5101400;28;20638;-86
2022/06/07 12:04:22;;;;;;;1.00;0.90;;;21.00;75.40;;;;;;5108571;28;21460;-86
2022/06/07 12:06:51;;;;;;;0.40;0.40;;;21.20;77.80;;;;;;5102311;28;20668;-86
2022/06/07 12:09:20;;;;;;;0.60;0.60;;;21.20;75.70;;;;;;5089751;28;20678;-83
2022/06/07 12:11:47;;;;;;;0.73;0.73;;;21.20;74.50;;;;;;5091805;28;20648;-86
2022/06/07 12:14:27;;;;;;;0.80;0.80;;;21.10;75.70;;;;;;5099473;28;20623;-85
2022/06/07 12:16:59;;;;;;;0.57;0.57;;;21.20;78.20;;;;;;5094254;28;20639;-86
2022/06/07 12:19:27;;;;;;;0.50;0.50;;;21.10;73.20;;;;;;5109428;28;20627;-86
2022/06/07 12:21:59;;;;;;;0.67;0.67;;;21.00;75.70;;;;;;5102761;28;20679;-86
2022/06/07 12:24:29;;;;;;;0.63;0.53;;;20.90;76.20;;;;;;5089010;28;20677;-86
2022/06/07 12:26:56;;;;;;;0.53;0.53;;;21.20;78.50;;;;;;5088742;28;20621;-86
2022/06/07 12:29:26;;;;;;;1.03;0.60;;;21.20;74.40;;;;;;5107035;28;20651;-87
2022/06/07 12:31:56;;;;;;;2.00;1.00;;;21.00;73.10;;;;;;5094392;28;20890;-85
2022/06/07 12:34:26;;;;;;;0.97;0.97;;;21.10;75.60;;;;;;5089000;28;20624;-87
2022/06/07 12:36:57;;;;;;;2.30;2.07;;;21.10;76.90;;;;;;5092394;28;20627;-86
2022/06/07 12:39:24;;;;;;;0.67;0.67;;;21.20;77.80;;;;;;5108948;28;20615;-86
2022/06/07 12:41:55;;;;;;;0.73;0.73;;;21.10;77.10;;;;;;5107337;28;20660;-86
2022/06/07 12:44:27;;;;;;;0.97;0.93;;;21.20;78.40;;;;;;5096197;28;20707;-86
2022/06/07 12:46:55;;;;;;;0.77;0.70;;;21.60;76.80;;;;;;5101823;28;20681;-86
2022/06/07 12:49:24;;;;;;;0.93;0.93;;;22.10;76.00;;;;;;5109065;28;21177;-86
2022/06/07 12:51:56;;;;;;;1.07;0.83;;;22.60;76.50;;;;;;5102101;28;20697;-86
2022/06/07 12:54:24;;;;;;;0.83;0.80;;;23.10;69.70;;;;;;5090648;28;20677;-85
2022/06/07 12:56:54;;;;;;;0.83;0.63;;;23.60;73.70;;;;;;5103447;28;20626;-86
2022/06/07 12:59:25;;;;;;;0.97;0.87;;;24.00;71.40;;;;;;5108384;28;20805;-85
2022/06/07 13:01:53;;;;;;;0.77;0.77;;;24.20;69.60;;;;;;5094263;28;20628;-85
2022/06/07 13:04:30;;;;;;;0.70;0.70;;;24.40;66.00;;;;;;5103529;28;21023;-86
2022/06/07 13:07:16;;;;;;;0.57;0.57;;;24.50;68.90;;;;;;5102920;28;21078;-86
2022/06/07 13:09:45;;;;;;;0.70;0.70;;;24.30;67.80;;;;;;5093354;28;20631;-86
2022/06/07 13:12:18;;;;;;;0.50;0.50;;;24.10;68.70;;;;;;5088900;28;21352;-86
2022/06/07 13:14:45;;;;;;;0.60;0.60;;;23.80;67.20;;;;;;5089472;28;20621;-86
2022/06/07 13:17:15;;;;;;;0.80;0.80;;;23.70;70.80;;;;;;5092412;28;20668;-86
2022/06/07 13:19:45;;;;;;;0.60;0.60;;;23.80;66.50;;;;;;5108474;28;20652;-85
2022/06/07 13:22:15;;;;;;;0.60;0.60;;;23.60;67.70;;;;;;5100045;28;20612;-85
2022/06/07 13:24:45;;;;;;;0.50;0.50;;;23.50;69.40;;;;;;5102257;28;20627;-86
2022/06/07 13:27:41;;;;;;;0.70;0.60;;;23.40;66.90;;;;;;5104217;28;20623;-86
2022/06/07 13:30:23;;;;;;;0.60;0.50;;;23.30;64.70;;;;;;5105848;28;20643;-85
2022/06/07 13:33:01;;;;;;;1.10;1.00;;;23.80;66.00;;;;;;5092136;28;21024;-83